Flight Track Log - Related Links

Times and Time Zones

All times are in EDT time to prevent confusion due to time zone crossing. See the SKW5361 flight status page for this flight to view local times or setup timezone preferences in your user account.

Time Position Orientation Groundspeed Altitude Reporting Facility
EDT Latitude Longitude Course Direction KTS MPH feet Rate Location/Type
09:12AM 41.0022 -85.2456 278° West 188 216 3,500  Level Chicago Center
09:13AM 41.0511 -85.2961 322° Northwest 213 245 7,000 3,290 Climbing Chicago Center
09:14AM 41.2075 -85.5368 306° West  Level FlightAware Approximate
09:14AM 41.1017 -85.3714 312° West 224 258 10,300  Level Chicago Center
09:15AM 41.2500 -85.6344 270° West  Level FlightAware Approximate
09:15AM 41.1478 -85.4419 311° West 243 280 13,100  Level Chicago Center
09:16AM 41.2500 -85.7544 270° West  Level FlightAware Approximate
09:16AM 41.1961 -85.5167 311° West 259 298 15,300  Level Chicago Center
09:17AM 41.2667 -85.8709 270° West  Level FlightAware Approximate
09:17AM 41.2464 -85.5964 310° West 276 318 16,000  Level Chicago Center
09:18AM 41.2785 -85.9898 278° West  Level FlightAware Approximate
09:18AM 41.2597 -85.7006 280° West 291 335 16,000  Level Chicago Center
09:19AM 41.2661 -85.8053 275° West 283 326 16,000  Level Chicago Center
09:20AM 41.2728 -85.9106 275° West 287 330 16,000  Level Chicago Center
09:22AM 41.2836 -86.0353 277° West 284 327 16,000  Level Chicago Center
09:23AM 41.2956 -86.1369 279° West 282 325 16,000  Level Chicago Center
09:24AM 41.3081 -86.2383 279° West 280 322 16,000  Level Chicago Center
09:25AM 41.3197 -86.3389 279° West 279 321 16,000 -629 Level Chicago Center
09:26AM 41.3569 -86.4275 299° West 279 321 14,700 -1,403 Descending Chicago Center
09:27AM 41.4039 -86.5217 304° West 299 344 13,100 -1,306 Descending Chicago Center
09:28AM 41.4661 -86.6242 309° West 298 343 12,000 -532 Descending Chicago Center
09:29AM 41.5408 -86.6908 326° Northwest 320 368 12,000  Level Chicago Center
09:30AM 41.6203 -86.7608 327° Northwest 320 368 12,000 -240 Level Chicago Center
09:31AM 41.7003 -86.8006 340° North 315 362 11,500 -480 Descending Chicago Center
09:32AM 41.7961 -86.8136 354° North 321 369 11,000 -242 Descending Chicago Center
09:33AM 41.8792 -86.8469 343° North 316 364 11,000 -242 Level Chicago Center
09:34AM 41.9339 -86.9400 308° West 316 364 10,500 -581 Descending Chicago Center
09:35AM 41.9592 -87.0383 289° West 280 322 9,800 -871 Descending Chicago Center
09:36AM 41.9783 -87.1306 286° West 246 283 8,700 -1,065 Descending Chicago Center
09:37AM 41.9819 -87.2181 273° West 241 277 7,600 -823 Descending Chicago Center
09:38AM 41.9831 -87.3064 271° West 222 255 7,000 -290 Descending Chicago Center
09:39AM 41.9811 -87.3722 268° West 183 211 7,000  Level Chicago Center
09:40AM 41.9822 -87.4400 271° West 173 199 7,000 -144 Level Chicago Center
09:41AM 41.9828 -87.4967 271° West 156 180 6,700 -435 Descending Chicago Center
09:42AM 41.9822 -87.5581 269° West 156 180 6,100 -677 Descending Chicago Center
09:43AM 41.9822 -87.6161 270° West 155 178 5,300 -833 Descending Chicago Center
09:44AM 41.9833 -87.6667 272° West 161 185 4,600 -1,132 Descending Chicago TRACON
09:45AM 41.9833 -87.7167 270° West 171 197 3,300 -1,200 Descending Chicago TRACON
09:46AM 41.9833 -87.7833 270° West 172 198 2,200 -900 Descending Chicago TRACON
09:47AM 41.9833 -87.8333 270° West 127 146 1,500 -700 Descending Chicago TRACON
09:50AM 41.9667 -87.9000 270° West  Level FlightAware Approximate

Login

Don't have an account? Register now (free) for customized features, flight alerts, and more!